createdAt,value
2022-08-28T00:00:16.704Z,3.62
2022-08-28T00:02:47.683Z,3.52
2022-08-28T00:05:19.456Z,3.40
2022-08-28T00:07:48.092Z,3.60
2022-08-28T00:10:19.858Z,3.55
2022-08-28T00:12:51.923Z,3.02
2022-08-28T00:15:24.861Z,3.22
2022-08-28T00:17:52.999Z,3.42
2022-08-28T00:20:21.638Z,3.72
2022-08-28T00:22:50.274Z,3.80
2022-08-28T00:25:22.404Z,3.77
2022-08-28T00:27:52.902Z,3.70
2022-08-28T00:30:27.805Z,4.85
2022-08-28T00:32:59.484Z,6.65
2022-08-28T00:35:27.947Z,10.23
2022-08-28T00:37:57.046Z,9.20
2022-08-28T00:40:32.477Z,8.33
2022-08-28T00:43:00.482Z,6.05
2022-08-28T00:45:29.514Z,4.90
2022-08-28T00:47:57.921Z,4.53
2022-08-28T00:50:32.435Z,5.08
2022-08-28T00:53:01.240Z,5.42
2022-08-28T00:55:29.952Z,4.83
2022-08-28T00:58:00.292Z,4.37
2022-08-28T01:00:35.563Z,4.28
2022-08-28T01:03:05.198Z,4.25
2022-08-28T01:05:35.696Z,4.08
2022-08-28T01:08:03.893Z,3.80
2022-08-28T01:10:34.431Z,3.60
2022-08-28T01:13:03.614Z,3.42
2022-08-28T01:15:37.668Z,3.80
2022-08-28T01:18:10.035Z,3.50
2022-08-28T01:20:43.120Z,3.43
2022-08-28T01:26:14.012Z,3.25
2022-08-28T01:28:41.814Z,4.55
2022-08-28T01:31:12.934Z,6.62
2022-08-28T01:33:42.813Z,5.60
2022-08-28T01:36:12.199Z,6.72
2022-08-28T01:38:41.754Z,5.25
2022-08-28T01:41:11.028Z,4.00
2022-08-28T01:43:41.007Z,3.75
2022-08-28T01:46:11.151Z,3.70
2022-08-28T01:48:43.105Z,3.50
2022-08-28T01:51:11.942Z,3.83
2022-08-28T01:53:41.085Z,3.95
2022-08-28T01:56:13.615Z,4.25
2022-08-28T01:58:41.702Z,5.17
2022-08-28T02:01:13.310Z,3.40
2022-08-28T02:03:44.759Z,3.80
2022-08-28T02:06:21.687Z,3.92
2022-08-28T02:08:54.995Z,3.83
2022-08-28T02:11:24.818Z,3.77
2022-08-28T02:13:54.238Z,3.85
2022-08-28T02:16:26.865Z,3.67
2022-08-28T02:19:03.327Z,3.37
2022-08-28T02:21:31.145Z,3.83
2022-08-28T02:23:59.112Z,4.08
2022-08-28T02:26:27.943Z,3.37
2022-08-28T02:28:55.767Z,3.50
2022-08-28T02:31:23.625Z,3.58
2022-08-28T02:33:51.245Z,4.40
2022-08-28T02:36:19.101Z,3.72
2022-08-28T02:38:48.516Z,3.90
2022-08-28T02:41:16.908Z,9.63
2022-08-28T02:43:44.946Z,15.03
2022-08-28T02:46:13.065Z,13.72
2022-08-28T02:48:41.142Z,9.23
2022-08-28T02:51:13.185Z,7.00
2022-08-28T02:53:42.165Z,5.40
2022-08-28T02:56:11.621Z,4.67
2022-08-28T02:58:40.242Z,4.30
2022-08-28T03:01:10.749Z,4.28
2022-08-28T03:03:41.425Z,3.55
2022-08-28T03:06:14.489Z,3.80
2022-08-28T03:08:43.252Z,3.75
2022-08-28T03:11:12.088Z,3.92
2022-08-28T03:13:39.756Z,3.40
2022-08-28T03:16:07.920Z,3.55
2022-08-28T03:18:35.574Z,3.50
2022-08-28T03:21:04.191Z,3.60
2022-08-28T03:23:32.341Z,3.22
2022-08-28T03:26:05.015Z,6.83
2022-08-28T03:28:41.491Z,3.52
2022-08-28T03:31:13.472Z,3.58
2022-08-28T03:33:42.750Z,3.47
2022-08-28T03:36:14.333Z,3.42
2022-08-28T03:38:42.117Z,3.83
2022-08-28T03:41:12.601Z,3.45
2022-08-28T03:43:40.669Z,3.37
2022-08-28T03:46:15.177Z,3.60
2022-08-28T03:48:44.922Z,3.83
2022-08-28T03:51:17.756Z,7.15
2022-08-28T03:53:47.005Z,4.70
2022-08-28T03:56:21.174Z,4.45
2022-08-28T03:58:51.926Z,4.90
2022-08-28T04:01:20.985Z,4.28
2022-08-28T04:03:48.857Z,3.90
2022-08-28T04:06:16.686Z,4.17
2022-08-28T04:08:44.713Z,3.77
2022-08-28T04:11:12.779Z,4.22
2022-08-28T04:13:41.430Z,3.80
2022-08-28T04:16:13.388Z,4.60
2022-08-28T04:18:42.734Z,4.47
2022-08-28T04:21:15.792Z,4.40
2022-08-28T04:23:45.614Z,3.70
2022-08-28T04:26:18.083Z,3.60
2022-08-28T04:28:46.868Z,3.72
2022-08-28T04:31:15.461Z,3.50
2022-08-28T04:33:43.688Z,3.60
2022-08-28T04:36:16.214Z,3.10
2022-08-28T04:38:44.269Z,4.47
2022-08-28T04:41:15.305Z,3.85
2022-08-28T04:43:43.989Z,3.20
2022-08-28T04:46:14.601Z,3.00
2022-08-28T04:48:42.905Z,3.40
2022-08-28T04:51:14.540Z,3.67
2022-08-28T04:53:44.373Z,3.72
2022-08-28T04:56:14.266Z,3.83
2022-08-28T04:58:43.377Z,4.10
2022-08-28T05:01:18.269Z,3.77
2022-08-28T05:03:47.800Z,3.85
2022-08-28T05:06:16.640Z,3.87
2022-08-28T05:08:44.375Z,4.50
2022-08-28T05:11:21.281Z,3.85
2022-08-28T05:13:46.168Z,3.90
2022-08-28T05:16:14.388Z,4.20
2022-08-28T05:18:42.726Z,3.87
2022-08-28T05:21:19.154Z,3.72
2022-08-28T05:23:54.081Z,4.00
2022-08-28T05:26:22.847Z,3.87
2022-08-28T05:28:54.962Z,4.15
2022-08-28T05:31:24.671Z,3.90
2022-08-28T05:33:53.224Z,4.40
2022-08-28T05:36:23.414Z,3.75
2022-08-28T05:38:56.696Z,3.55
2022-08-28T05:41:29.651Z,3.95
2022-08-28T05:44:01.412Z,3.95
2022-08-28T05:46:29.859Z,4.15
2022-08-28T05:48:59.722Z,4.50
2022-08-28T05:51:28.349Z,4.72
2022-08-28T05:53:57.195Z,4.80
2022-08-28T05:56:29.174Z,5.22
2022-08-28T05:58:59.267Z,5.00
2022-08-28T06:01:34.437Z,4.20
2022-08-28T06:04:10.583Z,4.30
2022-08-28T06:06:40.598Z,3.60
2022-08-28T06:09:16.359Z,4.17
2022-08-28T06:11:46.105Z,3.85
2022-08-28T06:14:18.104Z,3.80
2022-08-28T06:16:54.689Z,4.05
2022-08-28T06:19:25.266Z,3.72
2022-08-28T06:21:59.218Z,3.70
2022-08-28T06:24:28.788Z,4.90
2022-08-28T06:26:58.674Z,3.67
2022-08-28T06:29:28.672Z,4.20
2022-08-28T06:32:01.366Z,4.12
2022-08-28T06:34:29.572Z,3.90
2022-08-28T06:36:57.309Z,3.65
2022-08-28T06:39:25.214Z,4.90
2022-08-28T06:41:53.319Z,5.17
2022-08-28T06:44:22.273Z,5.67
2022-08-28T06:46:53.207Z,5.20
2022-08-28T06:49:21.346Z,4.83
2022-08-28T06:51:49.268Z,4.80
2022-08-28T06:54:21.772Z,4.60
2022-08-28T06:56:46.701Z,4.05
2022-08-28T06:59:14.629Z,4.90
2022-08-28T07:01:42.247Z,4.87
2022-08-28T07:04:13.902Z,3.85
2022-08-28T07:06:53.020Z,3.85
2022-08-28T07:09:18.403Z,4.12
2022-08-28T07:11:46.310Z,4.22
2022-08-28T07:14:13.941Z,3.92
2022-08-28T07:16:41.545Z,4.08
2022-08-28T07:19:11.722Z,3.65
2022-08-28T07:21:43.446Z,3.70
2022-08-28T07:24:14.091Z,3.52
2022-08-28T07:26:43.108Z,3.80
2022-08-28T07:29:11.772Z,3.72
2022-08-28T07:31:48.659Z,3.58
2022-08-28T07:34:19.552Z,3.67
2022-08-28T07:36:47.551Z,4.00
2022-08-28T07:39:15.813Z,4.10
2022-08-28T07:41:46.018Z,3.83
2022-08-28T07:44:33.690Z,4.03
2022-08-28T07:47:05.264Z,4.20
2022-08-28T07:49:34.796Z,4.08
2022-08-28T07:52:03.180Z,3.95
2022-08-28T07:54:31.248Z,4.62
2022-08-28T07:56:59.175Z,4.30
2022-08-28T07:59:29.568Z,4.35
2022-08-28T08:01:56.501Z,4.33
2022-08-28T08:04:25.460Z,4.37
2022-08-28T08:06:57.866Z,3.85
2022-08-28T08:09:23.258Z,4.05
2022-08-28T08:11:51.872Z,4.37
2022-08-28T08:14:19.576Z,4.22
2022-08-28T08:16:47.818Z,5.28
2022-08-28T08:19:16.926Z,4.85
2022-08-28T08:21:53.308Z,4.53
2022-08-28T08:24:24.470Z,3.90
2022-08-28T08:26:59.478Z,4.10
2022-08-28T08:29:25.179Z,3.95
2022-08-28T08:32:06.570Z,3.70
2022-08-28T08:34:40.843Z,3.72
2022-08-28T08:37:09.974Z,3.37
2022-08-28T08:39:37.862Z,3.55
2022-08-28T08:42:10.880Z,3.42
2022-08-28T08:44:46.437Z,3.67
2022-08-28T08:47:22.224Z,3.45
2022-08-28T08:49:57.535Z,3.47
2022-08-28T08:52:53.634Z,3.40
2022-08-28T08:55:33.779Z,3.80
2022-08-28T08:58:13.307Z,3.47
2022-08-28T09:00:58.721Z,3.55
2022-08-28T09:03:48.512Z,3.60
2022-08-28T09:06:31.074Z,3.58
2022-08-28T09:09:06.907Z,3.87
2022-08-28T09:11:50.544Z,3.27
2022-08-28T09:15:00.021Z,3.10
2022-08-28T09:17:32.852Z,3.00
2022-08-28T09:20:00.518Z,3.05
2022-08-28T09:22:28.408Z,3.30
2022-08-28T09:24:56.115Z,3.42
2022-08-28T09:27:34.446Z,3.35
2022-08-28T09:30:10.267Z,3.15
2022-08-28T09:32:43.869Z,3.50
2022-08-28T09:35:27.796Z,3.33
2022-08-28T09:38:27.872Z,3.02
2022-08-28T09:41:29.638Z,3.20
2022-08-28T09:43:57.488Z,3.35
2022-08-28T09:46:31.233Z,3.40
2022-08-28T09:49:12.806Z,3.50
2022-08-28T09:51:41.288Z,3.20
2022-08-28T09:54:19.803Z,3.30
2022-08-28T09:56:49.426Z,3.20
2022-08-28T09:59:20.680Z,3.35
2022-08-28T10:02:12.713Z,3.33
2022-08-28T10:04:54.442Z,3.25
2022-08-28T10:07:37.191Z,3.40
2022-08-28T10:10:32.207Z,3.72
2022-08-28T10:13:14.171Z,3.22
2022-08-28T10:16:13.944Z,2.77
2022-08-28T10:19:08.758Z,2.87
2022-08-28T10:21:50.735Z,3.08
2022-08-28T10:24:41.072Z,3.37
2022-08-28T10:27:33.633Z,3.20
2022-08-28T10:33:14.538Z,2.98
2022-08-28T10:35:52.950Z,2.62
2022-08-28T10:38:51.190Z,2.77
2022-08-28T10:41:30.872Z,3.00
2022-08-28T10:44:01.941Z,3.52
2022-08-28T10:46:41.082Z,2.67
2022-08-28T10:49:14.235Z,10.63
2022-08-28T10:51:52.802Z,3.00
2022-08-28T10:54:33.257Z,2.70
2022-08-28T10:57:35.006Z,2.90
2022-08-28T11:00:11.822Z,2.60
2022-08-28T11:02:44.789Z,2.77
2022-08-28T11:05:13.079Z,3.10
2022-08-28T11:07:46.169Z,2.70
2022-08-28T11:10:37.881Z,2.72
2022-08-28T11:13:09.801Z,2.20
2022-08-28T11:15:45.586Z,2.70
2022-08-28T11:18:44.803Z,2.90
2022-08-28T11:21:39.189Z,2.60
2022-08-28T11:24:33.133Z,2.75
2022-08-28T11:27:28.977Z,2.70
2022-08-28T11:30:11.260Z,2.60
2022-08-28T11:32:53.318Z,3.20
2022-08-28T11:35:32.361Z,2.35
2022-08-28T11:37:59.834Z,2.87
2022-08-28T11:40:37.927Z,2.65
2022-08-28T11:43:20.416Z,2.83
2022-08-28T11:45:59.754Z,2.70
2022-08-28T11:48:42.838Z,2.95
2022-08-28T11:51:38.358Z,2.55
2022-08-28T11:54:29.472Z,2.58
2022-08-28T11:57:25.817Z,3.02
2022-08-28T12:00:01.943Z,2.90
2022-08-28T12:02:48.419Z,2.70
2022-08-28T12:05:33.516Z,2.80
2022-08-28T12:08:03.961Z,2.40
2022-08-28T12:10:41.649Z,2.95
2022-08-28T12:13:09.689Z,2.60
2022-08-28T12:15:40.965Z,2.85
2022-08-28T12:18:17.233Z,2.80
2022-08-28T12:21:01.018Z,2.35
2022-08-28T12:24:05.373Z,2.35
2022-08-28T12:26:41.221Z,2.45
2022-08-28T12:29:29.413Z,2.70
2022-08-28T12:32:28.022Z,2.60
2022-08-28T12:35:04.292Z,2.77
2022-08-28T12:37:58.578Z,2.80
2022-08-28T12:40:44.957Z,2.85
2022-08-28T12:43:16.905Z,2.50
2022-08-28T12:45:57.640Z,2.65
2022-08-28T12:48:33.062Z,2.70
2022-08-28T12:51:08.769Z,2.50
2022-08-28T12:53:43.902Z,3.00
2022-08-28T12:56:15.531Z,2.80
2022-08-28T12:58:44.829Z,2.40
2022-08-28T13:01:31.952Z,2.92
2022-08-28T13:04:08.213Z,2.75
2022-08-28T13:06:39.108Z,2.37
2022-08-28T13:09:19.946Z,2.55
2022-08-28T13:11:50.987Z,2.65
2022-08-28T13:14:41.856Z,2.83
2022-08-28T13:17:12.224Z,2.55
2022-08-28T13:19:42.073Z,2.47
2022-08-28T13:22:40.475Z,2.90
2022-08-28T13:25:09.290Z,2.35
2022-08-28T13:27:38.494Z,2.60
2022-08-28T13:30:20.090Z,2.62
2022-08-28T13:33:04.674Z,2.45
2022-08-28T13:35:39.453Z,2.37
2022-08-28T13:38:11.873Z,2.58
2022-08-28T13:40:58.071Z,2.60
2022-08-28T13:43:26.703Z,2.45
2022-08-28T13:45:54.845Z,2.53
2022-08-28T13:48:26.692Z,2.70
2022-08-28T13:51:03.120Z,2.73
2022-08-28T13:53:32.523Z,2.35
2022-08-28T13:56:00.905Z,2.52
2022-08-28T13:58:28.501Z,2.37
2022-08-28T14:00:56.243Z,2.40
2022-08-28T14:03:37.257Z,2.37
2022-08-28T14:06:13.683Z,2.35
2022-08-28T14:08:43.137Z,2.65
2022-08-28T14:11:13.804Z,2.60
2022-08-28T14:13:47.719Z,2.40
2022-08-28T14:16:14.963Z,2.50
2022-08-28T14:18:42.805Z,2.45
2022-08-28T14:21:10.507Z,2.33
2022-08-28T14:23:38.162Z,2.25
2022-08-28T14:26:06.115Z,2.50
2022-08-28T14:28:36.237Z,2.47
2022-08-28T14:31:09.921Z,2.50
2022-08-28T14:36:05.378Z,2.60
2022-08-28T14:38:33.028Z,2.25
2022-08-28T14:41:01.674Z,2.72
2022-08-28T14:43:31.112Z,2.27
2022-08-28T14:45:59.887Z,2.30
2022-08-28T14:48:27.667Z,2.40
2022-08-28T14:50:55.335Z,2.27
2022-08-28T14:53:22.951Z,2.25
2022-08-28T14:55:50.888Z,2.40
2022-08-28T14:58:19.936Z,2.40
2022-08-28T15:00:50.084Z,2.35
2022-08-28T15:03:19.298Z,2.55
2022-08-28T15:05:46.989Z,2.62
2022-08-28T15:08:17.406Z,2.22
2022-08-28T15:10:45.504Z,3.12
2022-08-28T15:13:13.470Z,2.40
2022-08-28T15:15:42.640Z,2.90
2022-08-28T15:18:11.772Z,2.05
2022-08-28T15:20:44.301Z,2.72
2022-08-28T15:23:14.544Z,2.90
2022-08-28T15:25:42.729Z,2.70
2022-08-28T15:28:11.092Z,2.72
2022-08-28T15:30:39.305Z,14.55
2022-08-28T15:33:08.735Z,14.65
2022-08-28T15:35:36.799Z,6.95
2022-08-28T15:38:05.517Z,4.37
2022-08-28T15:40:52.319Z,3.77
2022-08-28T15:43:19.975Z,2.33
2022-08-28T15:45:47.789Z,2.42
2022-08-28T15:48:15.505Z,2.92
2022-08-28T15:50:43.368Z,3.35
2022-08-28T15:53:12.084Z,2.40
2022-08-28T15:55:40.057Z,2.50
2022-08-28T15:58:14.237Z,2.67
2022-08-28T16:00:38.841Z,3.00
2022-08-28T16:03:06.750Z,2.42
2022-08-28T16:05:36.137Z,2.70
2022-08-28T16:08:05.698Z,2.65
2022-08-28T16:10:33.446Z,2.45
2022-08-28T16:13:02.916Z,2.52
2022-08-28T16:15:30.813Z,2.80
2022-08-28T16:17:58.658Z,2.37
2022-08-28T16:20:26.123Z,2.50
2022-08-28T16:22:53.973Z,2.50
2022-08-28T16:25:21.761Z,2.60
2022-08-28T16:27:49.342Z,3.17
2022-08-28T16:30:18.566Z,5.75
2022-08-28T16:32:47.684Z,5.17
2022-08-28T16:35:16.202Z,16.90
2022-08-28T16:37:44.324Z,4.78
2022-08-28T16:40:14.751Z,4.03
2022-08-28T16:42:43.354Z,5.25
2022-08-28T16:45:12.982Z,4.90
2022-08-28T16:47:40.688Z,4.75
2022-08-28T16:50:11.998Z,5.47
2022-08-28T16:52:39.947Z,4.17
2022-08-28T16:55:09.990Z,6.15
2022-08-28T16:57:37.963Z,5.80
2022-08-28T17:00:12.102Z,4.95
2022-08-28T17:02:42.272Z,3.80
2022-08-28T17:05:13.638Z,3.20
2022-08-28T17:07:41.324Z,3.95
2022-08-28T17:10:11.877Z,4.80
2022-08-28T17:12:40.905Z,4.53
2022-08-28T17:15:09.988Z,5.95
2022-08-28T17:17:40.414Z,5.47
2022-08-28T17:20:12.132Z,10.68
2022-08-28T17:22:40.911Z,9.37
2022-08-28T17:25:12.669Z,7.28
2022-08-28T17:27:41.767Z,5.40
2022-08-28T17:30:11.562Z,6.67
2022-08-28T17:32:40.222Z,8.05
2022-08-28T17:35:08.648Z,6.97
2022-08-28T17:37:40.240Z,8.03
2022-08-28T17:40:12.663Z,5.00
2022-08-28T17:42:41.181Z,4.90
2022-08-28T17:45:09.636Z,5.20
2022-08-28T17:47:37.331Z,5.70
2022-08-28T17:50:05.751Z,8.20
2022-08-28T17:52:33.798Z,8.08
2022-08-28T17:55:02.389Z,6.37
2022-08-28T17:57:30.545Z,4.45
2022-08-28T18:00:00.379Z,4.40
2022-08-28T18:02:28.709Z,6.40
2022-08-28T18:04:56.587Z,5.72
2022-08-28T18:07:24.374Z,5.70
2022-08-28T18:09:52.101Z,5.47
2022-08-28T18:12:19.830Z,5.75
2022-08-28T18:14:47.681Z,5.85
2022-08-28T18:17:15.954Z,7.90
2022-08-28T18:19:43.809Z,8.00
2022-08-28T18:22:13.122Z,8.73
2022-08-28T18:24:41.362Z,6.80
2022-08-28T18:27:09.132Z,8.18
2022-08-28T18:29:39.041Z,7.03
2022-08-28T18:32:07.398Z,6.10
2022-08-28T18:34:36.350Z,5.78
2022-08-28T18:37:04.565Z,5.33
2022-08-28T18:39:34.577Z,13.88
2022-08-28T18:42:02.835Z,14.85
2022-08-28T18:44:31.798Z,7.45
2022-08-28T18:46:59.630Z,5.40
2022-08-28T18:49:28.084Z,5.30
2022-08-28T18:51:56.409Z,5.22
2022-08-28T18:54:24.084Z,4.97
2022-08-28T18:56:57.418Z,5.53
2022-08-28T18:59:24.003Z,5.22
2022-08-28T19:01:51.830Z,4.95
2022-08-28T19:04:19.594Z,5.42
2022-08-28T19:06:47.216Z,4.70
2022-08-28T19:09:19.294Z,5.25
2022-08-28T19:11:45.119Z,5.37
2022-08-28T19:14:12.996Z,5.17
2022-08-28T19:16:40.751Z,5.12
2022-08-28T19:19:09.009Z,5.17
2022-08-28T19:21:38.083Z,5.10
2022-08-28T19:24:05.927Z,5.47
2022-08-28T19:26:33.605Z,4.60
2022-08-28T19:29:02.502Z,5.12
2022-08-28T19:31:30.209Z,4.85
2022-08-28T19:33:57.991Z,4.70
2022-08-28T19:36:27.192Z,5.03
2022-08-28T19:38:55.126Z,5.22
2022-08-28T19:41:23.711Z,4.97
2022-08-28T19:43:51.418Z,4.92
2022-08-28T19:46:20.634Z,4.90
2022-08-28T19:48:51.223Z,4.97
2022-08-28T19:51:23.362Z,4.80
2022-08-28T19:53:57.885Z,4.95
2022-08-28T19:56:25.458Z,4.60
2022-08-28T19:58:56.147Z,4.42
2022-08-28T20:01:24.012Z,4.10
2022-08-28T20:03:51.992Z,4.65
2022-08-28T20:06:19.510Z,4.33
2022-08-28T20:08:47.288Z,4.53
2022-08-28T20:11:20.948Z,4.20
2022-08-28T20:13:48.645Z,4.00
2022-08-28T20:16:16.645Z,4.30
2022-08-28T20:18:44.921Z,4.45
2022-08-28T20:21:13.879Z,4.40
2022-08-28T20:23:41.701Z,4.20
2022-08-28T20:26:10.154Z,4.10
2022-08-28T20:28:38.300Z,4.35
2022-08-28T20:31:17.529Z,4.42
2022-08-28T20:33:47.932Z,4.45
2022-08-28T20:36:21.167Z,4.10
2022-08-28T20:38:48.612Z,4.30
2022-08-28T20:41:19.769Z,4.42
2022-08-28T20:43:48.009Z,3.83
2022-08-28T20:46:16.709Z,4.15
2022-08-28T20:48:44.809Z,4.05
2022-08-28T20:51:12.438Z,3.80
2022-08-28T20:53:40.024Z,3.62
2022-08-28T20:56:10.113Z,3.92
2022-08-28T20:58:38.070Z,4.65
2022-08-28T21:01:06.081Z,4.10
2022-08-28T21:03:33.935Z,3.85
2022-08-28T21:06:01.557Z,4.08
2022-08-28T21:08:29.150Z,4.25
2022-08-28T21:10:58.367Z,4.08
2022-08-28T21:13:26.235Z,4.30
2022-08-28T21:15:54.066Z,3.70
2022-08-28T21:18:21.935Z,3.92
2022-08-28T21:20:51.548Z,4.03
2022-08-28T21:23:19.360Z,4.12
2022-08-28T21:25:47.889Z,4.30
2022-08-28T21:28:15.726Z,4.22
2022-08-28T21:30:43.627Z,4.03
2022-08-28T21:33:11.635Z,3.47
2022-08-28T21:35:42.443Z,4.00
2022-08-28T21:38:10.298Z,3.87
2022-08-28T21:40:40.789Z,3.98
2022-08-28T21:43:08.787Z,3.92
2022-08-28T21:45:36.413Z,4.30
2022-08-28T21:48:04.301Z,3.83
2022-08-28T21:50:32.015Z,3.70
2022-08-28T21:52:59.681Z,3.90
2022-08-28T21:55:27.665Z,3.58
2022-08-28T21:57:55.427Z,3.98
2022-08-28T22:00:23.879Z,3.72
2022-08-28T22:02:52.098Z,3.70
2022-08-28T22:05:20.212Z,3.72
2022-08-28T22:07:47.858Z,3.55
2022-08-28T22:10:15.199Z,3.75
2022-08-28T22:12:43.091Z,3.65
2022-08-28T22:15:10.797Z,3.77
2022-08-28T22:17:40.255Z,3.90
2022-08-28T22:20:09.205Z,3.47
2022-08-28T22:22:55.129Z,3.90
2022-08-28T22:25:23.093Z,4.53
2022-08-28T22:27:50.713Z,4.80
2022-08-28T22:30:19.440Z,4.60
2022-08-28T22:32:47.340Z,4.10
2022-08-28T22:35:14.927Z,4.20
2022-08-28T22:37:42.886Z,3.95
2022-08-28T22:40:13.469Z,3.92
2022-08-28T22:42:42.148Z,4.00
2022-08-28T22:45:10.833Z,4.10
2022-08-28T22:47:39.163Z,4.00
2022-08-28T22:50:08.063Z,4.40
2022-08-28T22:52:36.697Z,4.15
2022-08-28T22:55:12.475Z,4.47
2022-08-28T22:57:40.305Z,4.03
2022-08-28T23:00:16.153Z,3.98
2022-08-28T23:02:44.270Z,4.03
2022-08-28T23:05:12.666Z,3.75
2022-08-28T23:07:40.831Z,3.83
2022-08-28T23:10:10.329Z,3.87
2022-08-28T23:12:38.192Z,3.40
2022-08-28T23:15:13.394Z,3.30
2022-08-28T23:17:42.889Z,3.30
2022-08-28T23:20:14.131Z,3.75
2022-08-28T23:22:41.792Z,3.50
2022-08-28T23:25:15.081Z,3.80
2022-08-28T23:27:44.659Z,3.50
2022-08-28T23:30:15.765Z,3.70
2022-08-28T23:32:43.707Z,3.55
2022-08-28T23:35:13.903Z,3.80
2022-08-28T23:37:43.680Z,3.27
2022-08-28T23:40:16.574Z,3.02
2022-08-28T23:42:45.746Z,3.80
2022-08-28T23:45:17.784Z,3.90
2022-08-28T23:47:46.375Z,3.80
2022-08-28T23:50:19.038Z,3.80
2022-08-28T23:52:48.329Z,3.80
2022-08-28T23:55:18.587Z,3.90
2022-08-28T23:57:46.346Z,3.42
